createdAt,value
2018-03-06T00:00:02.718Z,16.95
2018-03-06T00:01:02.690Z,16.93
2018-03-06T00:02:02.685Z,16.94
2018-03-06T00:03:06.724Z,16.95
2018-03-06T00:04:02.679Z,16.94
2018-03-06T00:05:02.662Z,16.93
2018-03-06T00:06:02.680Z,16.92
2018-03-06T00:07:06.491Z,16.93
2018-03-06T00:08:02.693Z,16.9
2018-03-06T00:09:02.695Z,16.91
2018-03-06T00:10:02.670Z,16.9
2018-03-06T00:11:05.957Z,16.91
2018-03-06T00:12:02.663Z,16.9
2018-03-06T00:13:02.674Z,16.9
2018-03-06T00:14:02.720Z,16.91
2018-03-06T00:15:06.387Z,16.89
2018-03-06T00:16:02.660Z,16.89
2018-03-06T00:17:02.704Z,16.89
2018-03-06T00:18:02.663Z,16.88
2018-03-06T00:19:06.158Z,16.87
2018-03-06T00:20:02.729Z,16.88
2018-03-06T00:21:02.797Z,16.87
2018-03-06T00:22:06.332Z,16.87
2018-03-06T00:23:02.894Z,16.87
2018-03-06T00:24:02.729Z,16.86
2018-03-06T00:25:02.675Z,16.85
2018-03-06T00:26:05.474Z,16.88
2018-03-06T00:27:02.721Z,16.85
2018-03-06T00:28:02.727Z,16.82
2018-03-06T00:29:06.666Z,16.82
2018-03-06T00:30:02.702Z,16.82
2018-03-06T00:31:02.658Z,16.84
2018-03-06T00:32:02.693Z,16.82
2018-03-06T00:33:06.090Z,16.82
2018-03-06T00:34:02.711Z,16.81
2018-03-06T00:35:02.678Z,16.81
2018-03-06T00:36:02.684Z,16.82
2018-03-06T00:37:06.224Z,16.8
2018-03-06T00:38:02.644Z,16.82
2018-03-06T00:39:02.722Z,16.79
2018-03-06T00:40:02.672Z,16.8
2018-03-06T00:41:02.698Z,16.81
2018-03-06T00:42:02.699Z,16.79
2018-03-06T00:43:02.664Z,16.78
2018-03-06T00:44:06.201Z,16.78
2018-03-06T00:45:02.655Z,16.78
2018-03-06T00:46:02.678Z,16.78
2018-03-06T00:47:05.614Z,16.78
2018-03-06T00:48:02.659Z,16.76
2018-03-06T00:49:02.652Z,16.77
2018-03-06T00:50:06.563Z,16.76
2018-03-06T00:51:02.661Z,16.74
2018-03-06T00:52:02.661Z,16.76
2018-03-06T00:53:02.639Z,16.75
2018-03-06T00:54:06.612Z,16.75
2018-03-06T00:55:02.664Z,16.74
2018-03-06T00:56:02.655Z,16.73
2018-03-06T00:57:05.876Z,16.74
2018-03-06T00:58:02.726Z,16.74
2018-03-06T00:59:02.647Z,16.74
2018-03-06T01:00:02.651Z,16.72
2018-03-06T01:01:02.890Z,16.75
2018-03-06T01:02:02.672Z,16.73
2018-03-06T01:03:02.670Z,16.72
2018-03-06T01:04:06.629Z,16.71
2018-03-06T01:05:02.806Z,16.72
2018-03-06T01:06:02.750Z,16.72
2018-03-06T01:07:02.689Z,16.7
2018-03-06T01:08:05.355Z,16.71
2018-03-06T01:09:02.649Z,16.7
2018-03-06T01:10:02.688Z,16.71
2018-03-06T01:11:04.284Z,16.7
2018-03-06T01:12:02.727Z,16.71
2018-03-06T01:13:02.663Z,16.69
2018-03-06T01:14:02.639Z,16.69
2018-03-06T01:15:05.760Z,16.7
2018-03-06T01:16:02.683Z,16.72
2018-03-06T01:17:02.699Z,16.69
2018-03-06T01:18:02.674Z,16.67
2018-03-06T01:19:06.283Z,16.65
2018-03-06T01:20:02.694Z,16.69
2018-03-06T01:21:02.666Z,16.7
2018-03-06T01:22:02.678Z,16.67
2018-03-06T01:23:02.671Z,16.69
2018-03-06T01:24:02.734Z,16.66
2018-03-06T01:25:02.754Z,16.66
2018-03-06T01:26:06.191Z,16.66
2018-03-06T01:27:02.854Z,16.65
2018-03-06T01:28:02.656Z,16.66
2018-03-06T01:29:05.531Z,16.64
2018-03-06T01:30:02.656Z,16.63
2018-03-06T01:31:02.658Z,16.63
2018-03-06T01:32:03.433Z,16.63
2018-03-06T01:33:02.664Z,16.64
2018-03-06T01:34:02.648Z,16.63
2018-03-06T01:35:02.686Z,16.65
2018-03-06T01:36:05.967Z,16.64
2018-03-06T01:37:02.663Z,16.64
2018-03-06T01:38:02.709Z,16.61
2018-03-06T01:39:06.478Z,16.61
2018-03-06T01:40:02.732Z,16.62
2018-03-06T01:41:02.671Z,16.62
2018-03-06T01:42:06.588Z,16.63
2018-03-06T01:43:02.717Z,16.6
2018-03-06T01:44:02.680Z,16.61
2018-03-06T01:45:02.766Z,16.61
2018-03-06T01:46:06.478Z,16.6
2018-03-06T01:47:02.683Z,16.61
2018-03-06T01:48:03.011Z,16.61
2018-03-06T01:49:06.574Z,16.57
2018-03-06T01:50:02.718Z,16.59
2018-03-06T01:51:02.676Z,16.6
2018-03-06T01:52:06.664Z,16.57
2018-03-06T01:53:02.750Z,16.59
2018-03-06T01:54:02.625Z,16.58
2018-03-06T01:55:02.705Z,16.57
2018-03-06T01:56:02.696Z,16.57
2018-03-06T01:57:02.679Z,16.56
2018-03-06T01:58:02.648Z,16.57
2018-03-06T01:59:06.177Z,16.56
2018-03-06T02:00:03.076Z,16.56
2018-03-06T02:01:02.640Z,16.57
2018-03-06T02:02:02.663Z,16.56
2018-03-06T02:03:02.633Z,16.56
2018-03-06T02:04:02.698Z,16.56
2018-03-06T02:05:02.631Z,16.54
2018-03-06T02:06:06.350Z,16.52
2018-03-06T02:07:02.633Z,16.52
2018-03-06T02:08:02.616Z,16.56
2018-03-06T02:09:02.659Z,16.54
2018-03-06T02:10:02.710Z,16.54
2018-03-06T02:11:02.934Z,16.54
2018-03-06T02:12:02.621Z,16.52
2018-03-06T02:13:06.521Z,16.54
2018-03-06T02:14:02.641Z,16.52
2018-03-06T02:15:02.645Z,16.55
2018-03-06T02:16:02.693Z,16.51
2018-03-06T02:17:05.523Z,16.52
2018-03-06T02:18:02.640Z,16.52
2018-03-06T02:19:02.664Z,16.52
2018-03-06T02:20:02.682Z,16.5
2018-03-06T02:21:05.404Z,16.5
2018-03-06T02:22:02.938Z,16.5
2018-03-06T02:23:02.620Z,16.5
2018-03-06T02:24:03.917Z,16.51
2018-03-06T02:25:02.633Z,16.51
2018-03-06T02:26:02.655Z,16.5
2018-03-06T02:27:02.635Z,16.5
2018-03-06T02:28:05.814Z,16.48
2018-03-06T02:29:02.694Z,16.5
2018-03-06T02:30:02.657Z,16.48
2018-03-06T02:31:04.704Z,16.48
2018-03-06T02:32:02.635Z,16.5
2018-03-06T02:33:02.648Z,16.47
2018-03-06T02:34:02.620Z,16.47
2018-03-06T02:35:02.979Z,16.47
2018-03-06T02:36:02.621Z,16.45
2018-03-06T02:37:02.651Z,16.48
2018-03-06T02:38:02.653Z,16.44
2018-03-06T02:39:06.424Z,16.45
2018-03-06T02:40:02.661Z,16.44
2018-03-06T02:41:02.688Z,16.45
2018-03-06T02:42:03.731Z,16.43
2018-03-06T02:43:02.638Z,16.43
2018-03-06T02:44:02.643Z,16.45
2018-03-06T02:45:02.621Z,16.44
2018-03-06T02:46:04.914Z,16.44
2018-03-06T02:47:02.671Z,16.43
2018-03-06T02:48:02.604Z,16.41
2018-03-06T02:49:02.630Z,16.43
2018-03-06T02:50:06.238Z,16.42
2018-03-06T02:51:02.630Z,16.43
2018-03-06T02:52:02.629Z,16.43
2018-03-06T02:53:06.301Z,16.42
2018-03-06T02:54:02.641Z,16.4
2018-03-06T02:55:02.650Z,16.42
2018-03-06T02:56:02.603Z,16.43
2018-03-06T02:57:05.954Z,16.42
2018-03-06T02:58:02.640Z,16.42
2018-03-06T02:59:02.616Z,16.39
2018-03-06T03:00:06.465Z,16.37
2018-03-06T03:01:02.625Z,16.4
2018-03-06T03:02:02.630Z,16.4
2018-03-06T03:03:02.652Z,16.37
2018-03-06T03:04:06.582Z,16.37
2018-03-06T03:05:02.632Z,16.37
2018-03-06T03:06:02.655Z,16.37
2018-03-06T03:07:02.664Z,16.37
2018-03-06T03:08:05.132Z,16.37
2018-03-06T03:09:02.597Z,16.37
2018-03-06T03:10:02.635Z,16.37
2018-03-06T03:11:04.428Z,16.36
2018-03-06T03:12:02.607Z,16.34
2018-03-06T03:13:02.617Z,16.34
2018-03-06T03:14:02.601Z,16.33
2018-03-06T03:15:06.513Z,16.34
2018-03-06T03:16:02.661Z,16.34
2018-03-06T03:17:02.603Z,16.34
2018-03-06T03:18:02.596Z,16.35
2018-03-06T03:19:05.489Z,16.32
2018-03-06T03:20:02.617Z,16.3
2018-03-06T03:21:02.614Z,16.3
2018-03-06T03:22:02.652Z,16.32
2018-03-06T03:23:05.941Z,16.32
2018-03-06T03:24:02.613Z,16.33
2018-03-06T03:25:02.620Z,16.33
2018-03-06T03:26:05.618Z,16.33
2018-03-06T03:27:02.896Z,16.29
2018-03-06T03:28:02.639Z,16.3
2018-03-06T03:29:04.983Z,16.29
2018-03-06T03:30:02.617Z,16.28
2018-03-06T03:31:02.645Z,16.29
2018-03-06T03:32:06.701Z,16.29
2018-03-06T03:33:02.659Z,16.29
2018-03-06T03:34:02.583Z,16.3
2018-03-06T03:35:06.529Z,16.29
2018-03-06T03:36:02.614Z,16.3
2018-03-06T03:37:02.592Z,16.3
2018-03-06T03:38:02.631Z,16.29
2018-03-06T03:39:02.633Z,16.3
2018-03-06T03:40:02.646Z,16.27
2018-03-06T03:41:02.677Z,16.3
2018-03-06T03:42:06.125Z,16.31
2018-03-06T03:43:02.649Z,16.27
2018-03-06T03:44:02.609Z,16.28
2018-03-06T03:45:06.331Z,16.26
2018-03-06T03:46:02.608Z,16.28
2018-03-06T03:47:02.615Z,16.26
2018-03-06T03:48:05.140Z,16.26
2018-03-06T03:49:02.619Z,16.28
2018-03-06T03:50:02.589Z,16.26
2018-03-06T03:51:06.231Z,16.27
2018-03-06T03:52:02.635Z,16.24
2018-03-06T03:53:02.657Z,16.25
2018-03-06T03:54:03.770Z,16.25
2018-03-06T03:55:02.667Z,16.25
2018-03-06T03:56:02.681Z,16.25
2018-03-06T03:57:02.637Z,16.25
2018-03-06T03:58:06.330Z,16.22
2018-03-06T03:59:02.595Z,16.22
2018-03-06T04:00:02.645Z,16.22
2018-03-06T04:01:03.502Z,16.24
2018-03-06T04:02:02.644Z,16.2
2018-03-06T04:03:02.713Z,16.22
2018-03-06T04:04:02.646Z,16.22
2018-03-06T04:05:02.707Z,16.22
2018-03-06T04:06:02.596Z,16.21
2018-03-06T04:07:05.031Z,16.22
2018-03-06T04:08:02.648Z,16.22
2018-03-06T04:09:02.600Z,16.2
2018-03-06T04:10:05.986Z,16.2
2018-03-06T04:11:02.646Z,16.2
2018-03-06T04:12:02.640Z,16.19
2018-03-06T04:13:02.610Z,16.22
2018-03-06T04:14:02.627Z,16.21
2018-03-06T04:15:02.574Z,16.2
2018-03-06T04:16:02.641Z,16.18
2018-03-06T04:17:05.462Z,16.18
2018-03-06T04:18:02.574Z,16.16
2018-03-06T04:19:02.610Z,16.17
2018-03-06T04:20:06.390Z,16.16
2018-03-06T04:21:02.574Z,16.17
2018-03-06T04:22:02.594Z,16.15
2018-03-06T04:23:06.203Z,16.15
2018-03-06T04:24:02.646Z,16.17
2018-03-06T04:25:03.027Z,16.18
2018-03-06T04:26:02.606Z,16.15
2018-03-06T04:27:05.618Z,16.17
2018-03-06T04:28:02.585Z,16.16
2018-03-06T04:29:02.579Z,16.17
2018-03-06T04:30:02.596Z,16.16
2018-03-06T04:31:02.598Z,16.14
2018-03-06T04:32:02.618Z,16.15
2018-03-06T04:33:02.605Z,16.16
2018-03-06T04:34:06.296Z,16.15
2018-03-06T04:35:02.596Z,16.15
2018-03-06T04:36:02.585Z,16.12
2018-03-06T04:37:05.699Z,16.11
2018-03-06T04:38:02.701Z,16.1
2018-03-06T04:39:02.590Z,16.13
2018-03-06T04:40:06.535Z,16.14
2018-03-06T04:41:02.625Z,16.13
2018-03-06T04:42:02.657Z,16.12
2018-03-06T04:43:02.634Z,16.12
2018-03-06T04:44:05.402Z,16.13
2018-03-06T04:45:02.588Z,16.13
2018-03-06T04:46:02.618Z,16.14
2018-03-06T04:47:02.601Z,16.13
2018-03-06T04:48:05.962Z,16.16
2018-03-06T04:49:02.660Z,16.14
2018-03-06T04:50:02.630Z,16.14
2018-03-06T04:51:04.644Z,16.14
2018-03-06T04:52:02.647Z,16.14
2018-03-06T04:53:02.891Z,16.14
2018-03-06T04:54:02.620Z,16.14
2018-03-06T04:55:02.602Z,16.16
2018-03-06T04:56:02.580Z,16.15
2018-03-06T04:57:02.585Z,16.16
2018-03-06T04:58:05.176Z,16.14
2018-03-06T04:59:02.626Z,16.16
2018-03-06T05:00:02.597Z,16.14
2018-03-06T05:01:02.719Z,16.13
2018-03-06T05:02:06.503Z,16.14
2018-03-06T05:03:02.734Z,16.14
2018-03-06T05:04:02.605Z,16.15
2018-03-06T05:05:02.678Z,16.14
2018-03-06T05:06:05.620Z,16.18
2018-03-06T05:07:02.640Z,16.16
2018-03-06T05:08:02.616Z,16.17
2018-03-06T05:09:03.415Z,16.16
2018-03-06T05:10:02.563Z,16.19
2018-03-06T05:11:02.980Z,16.2
2018-03-06T05:12:02.607Z,16.2
2018-03-06T05:13:02.582Z,16.21
2018-03-06T05:14:02.612Z,16.21
2018-03-06T05:15:04.701Z,16.24
2018-03-06T05:16:02.600Z,16.26
2018-03-06T05:17:02.609Z,16.26
2018-03-06T05:18:02.597Z,16.29
2018-03-06T05:19:06.332Z,16.3
2018-03-06T05:20:02.576Z,16.3
2018-03-06T05:21:02.562Z,16.32
2018-03-06T05:22:02.586Z,16.33
2018-03-06T05:23:06.299Z,16.34
2018-03-06T05:24:02.585Z,16.39
2018-03-06T05:25:02.579Z,16.41
2018-03-06T05:26:02.578Z,16.42
2018-03-06T05:27:06.300Z,16.42
2018-03-06T05:28:02.554Z,16.43
2018-03-06T05:29:02.592Z,16.47
2018-03-06T05:30:02.611Z,16.48
2018-03-06T05:31:06.432Z,16.48
2018-03-06T05:32:02.619Z,16.49
2018-03-06T05:33:02.596Z,16.54
2018-03-06T05:34:06.311Z,16.54
2018-03-06T05:35:02.618Z,16.52
2018-03-06T05:36:02.585Z,16.59
2018-03-06T05:37:02.619Z,16.6
2018-03-06T05:38:06.142Z,16.6
2018-03-06T05:39:02.951Z,16.63
2018-03-06T05:40:02.891Z,16.62
2018-03-06T05:41:02.668Z,16.63
2018-03-06T05:42:06.781Z,16.65
2018-03-06T05:43:02.593Z,16.67
2018-03-06T05:44:02.610Z,16.69
2018-03-06T05:45:02.620Z,16.69
2018-03-06T05:46:06.610Z,16.7
2018-03-06T05:47:02.564Z,16.73
2018-03-06T05:48:02.568Z,16.74
2018-03-06T05:49:02.628Z,16.74
2018-03-06T05:50:06.342Z,16.75
2018-03-06T05:51:02.579Z,16.77
2018-03-06T05:52:02.557Z,16.76
2018-03-06T05:53:05.930Z,16.79
2018-03-06T05:54:02.629Z,16.8
2018-03-06T05:55:02.731Z,16.81
2018-03-06T05:56:02.608Z,16.82
2018-03-06T05:57:06.834Z,16.84
2018-03-06T05:58:02.584Z,16.85
2018-03-06T05:59:02.628Z,16.85
2018-03-06T06:00:02.604Z,16.85
2018-03-06T06:01:05.801Z,16.88
2018-03-06T06:02:02.651Z,16.88
2018-03-06T06:03:02.569Z,16.89
2018-03-06T06:04:05.787Z,16.9
2018-03-06T06:05:02.661Z,16.91
2018-03-06T06:06:02.558Z,16.92
2018-03-06T06:07:02.565Z,16.92
2018-03-06T06:08:02.691Z,16.93
2018-03-06T06:09:02.714Z,16.95
2018-03-06T06:10:05.977Z,16.95
2018-03-06T06:11:02.595Z,16.96
2018-03-06T06:12:02.569Z,16.99
2018-03-06T06:13:06.675Z,16.99
2018-03-06T06:14:03.158Z,16.99
2018-03-06T06:15:02.485Z,17.02
2018-03-06T06:16:02.479Z,17.02
2018-03-06T06:17:02.496Z,17.04
2018-03-06T06:18:02.519Z,17.04
2018-03-06T06:19:02.490Z,17.04
2018-03-06T06:20:02.528Z,17.05
2018-03-06T06:21:02.517Z,17.07
2018-03-06T06:22:02.498Z,17.07
2018-03-06T06:23:02.484Z,17.07
2018-03-06T06:24:02.489Z,17.08
2018-03-06T06:25:02.520Z,17.13
2018-03-06T06:26:02.517Z,17.11
2018-03-06T06:27:03.106Z,17.11
2018-03-06T06:28:02.822Z,17.14
2018-03-06T06:29:02.474Z,17.16
2018-03-06T06:30:02.524Z,17.15
2018-03-06T06:31:02.505Z,17.16
2018-03-06T06:32:02.504Z,17.16
2018-03-06T06:33:02.520Z,17.17
2018-03-06T06:34:02.482Z,17.18
2018-03-06T06:35:02.488Z,17.18
2018-03-06T06:36:02.495Z,17.2
2018-03-06T06:37:02.518Z,17.21
2018-03-06T06:38:02.762Z,17.22
2018-03-06T06:39:02.505Z,17.23
2018-03-06T06:40:02.683Z,17.23
2018-03-06T06:41:02.531Z,17.23
2018-03-06T06:42:02.610Z,17.24
2018-03-06T06:43:02.563Z,17.24
2018-03-06T06:44:02.524Z,17.25
2018-03-06T06:45:02.506Z,17.26
2018-03-06T06:46:02.481Z,17.28
2018-03-06T06:47:02.628Z,17.29
2018-03-06T06:48:02.491Z,17.29
2018-03-06T06:49:02.584Z,17.29
2018-03-06T06:50:02.545Z,17.3
2018-03-06T06:51:02.489Z,17.31
2018-03-06T06:52:02.522Z,17.32
2018-03-06T06:53:02.485Z,17.34
2018-03-06T06:54:02.487Z,17.35
2018-03-06T06:55:02.504Z,17.34
2018-03-06T06:56:02.477Z,17.37
2018-03-06T06:57:02.488Z,17.37
2018-03-06T06:58:02.505Z,17.37
2018-03-06T06:59:02.469Z,17.4
2018-03-06T07:00:02.460Z,17.38
2018-03-06T07:01:02.504Z,17.4
2018-03-06T07:02:02.468Z,17.4
2018-03-06T07:03:02.493Z,17.44
2018-03-06T07:04:02.481Z,17.43
2018-03-06T07:05:02.479Z,17.41
2018-03-06T07:06:02.543Z,17.46
2018-03-06T07:07:02.476Z,17.43
2018-03-06T07:08:02.465Z,17.46
2018-03-06T07:09:02.481Z,17.45
2018-03-06T07:10:02.471Z,17.47
2018-03-06T07:11:02.514Z,17.48
2018-03-06T07:12:02.462Z,17.48
2018-03-06T07:13:02.467Z,17.46
2018-03-06T07:14:02.466Z,17.47
2018-03-06T07:15:02.479Z,17.49
2018-03-06T07:16:02.464Z,17.48
2018-03-06T07:17:02.740Z,17.48
2018-03-06T07:18:02.542Z,17.47
2018-03-06T07:19:02.475Z,17.5
2018-03-06T07:20:02.486Z,17.5
2018-03-06T07:21:02.466Z,17.48
2018-03-06T07:22:02.771Z,17.49
2018-03-06T07:23:02.453Z,17.5
2018-03-06T07:24:02.481Z,17.49
2018-03-06T07:25:02.474Z,17.51
2018-03-06T07:26:02.481Z,17.51
2018-03-06T07:27:02.741Z,17.5
2018-03-06T07:28:02.465Z,17.54
2018-03-06T07:29:02.467Z,17.53
2018-03-06T07:30:02.468Z,17.52
2018-03-06T07:31:02.462Z,17.55
2018-03-06T07:32:02.501Z,17.54
2018-03-06T07:33:02.543Z,17.55
2018-03-06T07:34:02.492Z,17.54
2018-03-06T07:35:02.481Z,17.56
2018-03-06T07:36:02.456Z,17.54
2018-03-06T07:37:02.505Z,17.58
2018-03-06T07:38:02.521Z,17.59
2018-03-06T07:39:02.469Z,17.59
2018-03-06T07:40:02.470Z,17.59
2018-03-06T07:41:02.531Z,17.6
2018-03-06T07:42:02.529Z,17.6
2018-03-06T07:43:02.460Z,17.61
2018-03-06T07:44:02.460Z,17.62
2018-03-06T07:45:02.458Z,17.62
2018-03-06T07:46:02.452Z,17.63
2018-03-06T07:47:02.498Z,17.62
2018-03-06T07:48:02.458Z,17.64
2018-03-06T07:49:02.461Z,17.66
2018-03-06T07:50:02.449Z,17.67
2018-03-06T07:51:02.459Z,17.68
2018-03-06T07:52:02.473Z,17.68
2018-03-06T07:53:02.453Z,17.68
2018-03-06T07:54:02.472Z,17.67
2018-03-06T07:55:02.506Z,17.68
2018-03-06T07:56:02.541Z,17.73
2018-03-06T07:57:02.492Z,17.69
2018-03-06T07:58:02.451Z,17.69
2018-03-06T07:59:02.523Z,17.72
2018-03-06T08:00:02.476Z,17.7
2018-03-06T08:01:02.483Z,17.73
2018-03-06T08:02:02.477Z,17.74
2018-03-06T08:03:02.455Z,17.73
2018-03-06T08:04:02.492Z,17.73
2018-03-06T08:05:02.471Z,17.73
2018-03-06T08:06:02.456Z,17.76
2018-03-06T08:07:02.465Z,17.74
2018-03-06T08:08:02.498Z,17.73
2018-03-06T08:09:02.488Z,17.74
2018-03-06T08:10:02.467Z,17.74
2018-03-06T08:11:02.451Z,17.76
2018-03-06T08:12:02.744Z,17.74
2018-03-06T08:13:02.465Z,17.75
2018-03-06T08:14:02.490Z,17.76
2018-03-06T08:15:02.455Z,17.75
2018-03-06T08:16:02.448Z,17.76
2018-03-06T08:17:02.469Z,17.75
2018-03-06T08:18:02.455Z,17.76
2018-03-06T08:19:02.436Z,17.76
2018-03-06T08:20:02.432Z,17.76
2018-03-06T08:21:02.448Z,17.77
2018-03-06T08:22:02.448Z,17.75
2018-03-06T08:23:02.462Z,17.76
2018-03-06T08:24:02.451Z,17.77
2018-03-06T08:25:02.445Z,17.78
2018-03-06T08:26:02.466Z,17.79
2018-03-06T08:27:02.450Z,17.79
2018-03-06T08:28:02.439Z,17.81
2018-03-06T08:29:02.441Z,17.8
2018-03-06T08:30:02.446Z,17.78
2018-03-06T08:31:02.424Z,17.81
2018-03-06T08:32:02.451Z,17.79
2018-03-06T08:33:02.416Z,17.81
2018-03-06T08:34:02.423Z,17.8
2018-03-06T08:35:02.439Z,17.82
2018-03-06T08:36:02.468Z,17.84
2018-03-06T08:37:02.422Z,17.83
2018-03-06T08:38:02.457Z,17.83
2018-03-06T08:39:02.427Z,17.82
2018-03-06T08:40:02.476Z,17.83
2018-03-06T08:41:02.524Z,17.84
2018-03-06T08:42:02.423Z,17.87
2018-03-06T08:43:02.457Z,17.87
2018-03-06T08:44:02.423Z,17.87
2018-03-06T08:45:02.454Z,17.88
2018-03-06T08:46:02.458Z,17.87
2018-03-06T08:47:02.457Z,17.89
2018-03-06T08:48:02.471Z,17.89
2018-03-06T08:49:02.454Z,17.91
2018-03-06T08:50:02.423Z,17.91
2018-03-06T08:51:02.450Z,17.92
2018-03-06T08:52:02.431Z,17.91
2018-03-06T08:53:02.432Z,17.95
2018-03-06T08:54:02.430Z,17.94
2018-03-06T08:55:02.423Z,17.94
2018-03-06T08:56:02.428Z,17.93
2018-03-06T08:57:02.492Z,17.95
2018-03-06T08:58:02.424Z,17.94
2018-03-06T08:59:02.431Z,17.95
2018-03-06T09:00:02.428Z,17.97
2018-03-06T09:01:02.433Z,17.97
2018-03-06T09:02:02.448Z,17.95
2018-03-06T09:03:02.472Z,17.97
2018-03-06T09:04:02.476Z,17.96
2018-03-06T09:05:02.425Z,17.97
2018-03-06T09:06:02.432Z,17.96
2018-03-06T09:07:02.458Z,17.97
2018-03-06T09:08:02.423Z,17.97
2018-03-06T09:09:02.416Z,17.96
2018-03-06T09:10:02.425Z,17.97
2018-03-06T09:11:02.409Z,17.97
2018-03-06T09:12:02.692Z,17.97
2018-03-06T09:13:02.441Z,17.96
2018-03-06T09:14:02.429Z,17.95
2018-03-06T09:15:02.427Z,17.96
2018-03-06T09:16:02.427Z,17.95
2018-03-06T09:17:02.447Z,17.95
2018-03-06T09:18:02.445Z,17.95
2018-03-06T09:19:02.423Z,17.96
2018-03-06T09:20:02.427Z,17.96
2018-03-06T09:21:02.418Z,17.95
2018-03-06T09:22:02.493Z,17.95
2018-03-06T09:23:02.450Z,17.97
2018-03-06T09:24:02.418Z,17.95
2018-03-06T09:25:02.428Z,17.96
2018-03-06T09:26:02.437Z,17.95
2018-03-06T09:27:02.407Z,17.98
2018-03-06T09:28:02.418Z,17.95
2018-03-06T09:29:02.434Z,17.97
2018-03-06T09:30:02.420Z,17.96
2018-03-06T09:31:02.425Z,17.96
2018-03-06T09:32:02.419Z,17.98
2018-03-06T09:33:02.420Z,17.96
2018-03-06T09:34:02.445Z,17.98
2018-03-06T09:35:02.406Z,17.98
2018-03-06T09:36:02.421Z,17.99
2018-03-06T09:37:02.418Z,17.95
2018-03-06T09:38:02.461Z,17.98
2018-03-06T09:39:02.420Z,18
2018-03-06T09:40:02.416Z,18
2018-03-06T09:41:02.400Z,17.99
2018-03-06T09:42:02.406Z,17.99
2018-03-06T09:43:02.554Z,18
2018-03-06T09:44:02.420Z,18
2018-03-06T09:45:02.404Z,18.02
2018-03-06T09:46:02.427Z,18.03
2018-03-06T09:47:02.621Z,18.04
2018-03-06T09:48:02.409Z,18.04
2018-03-06T09:49:02.407Z,18.04
2018-03-06T09:50:02.473Z,18.03
2018-03-06T09:51:02.389Z,18.04
2018-03-06T09:52:02.407Z,18.06
2018-03-06T09:53:02.432Z,18.04
2018-03-06T09:54:02.395Z,18.05
2018-03-06T09:55:02.404Z,18.07
2018-03-06T09:56:02.522Z,18.08
2018-03-06T09:57:02.528Z,18.09
2018-03-06T09:58:02.415Z,18.09
2018-03-06T09:59:02.397Z,18.08
2018-03-06T10:00:02.419Z,18.1
2018-03-06T10:01:02.406Z,18.11
2018-03-06T10:02:02.409Z,18.11
2018-03-06T10:03:02.802Z,18.12
2018-03-06T10:04:02.410Z,18.12
2018-03-06T10:05:02.437Z,18.11
2018-03-06T10:06:02.418Z,18.11
2018-03-06T10:07:02.409Z,18.12
2018-03-06T10:08:02.406Z,18.12
2018-03-06T10:09:02.652Z,18.13
2018-03-06T10:10:02.424Z,18.13
2018-03-06T10:11:02.409Z,18.12
2018-03-06T10:12:02.390Z,18.11
2018-03-06T10:13:02.392Z,18.12
2018-03-06T10:14:02.435Z,18.11
2018-03-06T10:15:02.452Z,18.11
2018-03-06T10:16:02.401Z,18.13
2018-03-06T10:17:02.400Z,18.13
2018-03-06T10:18:02.420Z,18.12
2018-03-06T10:19:02.464Z,18.12
2018-03-06T10:20:02.503Z,18.13
2018-03-06T10:21:02.409Z,18.13
2018-03-06T10:22:02.445Z,18.13
2018-03-06T10:23:02.401Z,18.12
2018-03-06T10:24:02.363Z,18.12
2018-03-06T10:25:02.387Z,18.12
2018-03-06T10:26:02.436Z,18.14
2018-03-06T10:27:02.383Z,18.12
2018-03-06T10:28:02.533Z,18.12
2018-03-06T10:29:02.404Z,18.13
2018-03-06T10:30:02.361Z,18.13
2018-03-06T10:31:02.392Z,18.13
2018-03-06T10:32:02.446Z,18.14
2018-03-06T10:33:02.407Z,18.13
2018-03-06T10:34:02.718Z,18.13
2018-03-06T10:35:02.531Z,18.12
2018-03-06T10:36:02.396Z,18.15
2018-03-06T10:37:02.391Z,18.13
2018-03-06T10:38:02.385Z,18.14
2018-03-06T10:39:02.424Z,18.15
2018-03-06T10:40:02.454Z,18.13
2018-03-06T10:41:02.411Z,18.12
2018-03-06T10:42:02.393Z,18.17
2018-03-06T10:43:02.388Z,18.17
2018-03-06T10:44:02.391Z,18.17
2018-03-06T10:45:02.407Z,18.15
2018-03-06T10:46:02.368Z,18.14
2018-03-06T10:47:02.606Z,18.17
2018-03-06T10:48:02.414Z,18.17
2018-03-06T10:49:02.423Z,18.17
2018-03-06T10:50:02.407Z,18.18
2018-03-06T10:51:02.392Z,18.19
2018-03-06T10:52:02.440Z,18.18
2018-03-06T10:53:02.397Z,18.19
2018-03-06T10:54:02.413Z,18.2
2018-03-06T10:55:02.401Z,18.2
2018-03-06T10:56:02.418Z,18.19
2018-03-06T10:57:02.384Z,18.21
2018-03-06T10:58:02.398Z,18.22
2018-03-06T10:59:02.410Z,18.22
2018-03-06T11:00:02.411Z,18.22
2018-03-06T11:01:02.397Z,18.22
2018-03-06T11:02:02.401Z,18.22
2018-03-06T11:03:02.388Z,18.22
2018-03-06T11:04:02.420Z,18.23
2018-03-06T11:05:02.413Z,18.23
2018-03-06T11:06:02.369Z,18.22
2018-03-06T11:07:02.391Z,18.23
2018-03-06T11:08:02.369Z,18.23
2018-03-06T11:09:02.398Z,18.22
2018-03-06T11:10:02.427Z,18.22
2018-03-06T11:11:02.382Z,18.23
2018-03-06T11:12:02.385Z,18.21
2018-03-06T11:13:02.400Z,18.2
2018-03-06T11:14:02.374Z,18.21
2018-03-06T11:15:02.424Z,18.23
2018-03-06T11:16:02.407Z,18.2
2018-03-06T11:17:02.382Z,18.22
2018-03-06T11:18:02.382Z,18.21
2018-03-06T11:19:02.409Z,18.22
2018-03-06T11:20:02.401Z,18.2
2018-03-06T11:21:02.426Z,18.21
2018-03-06T11:22:02.389Z,18.22
2018-03-06T11:23:02.376Z,18.2
2018-03-06T11:24:02.381Z,18.21
2018-03-06T11:25:02.417Z,18.19
2018-03-06T11:26:02.412Z,18.19
2018-03-06T11:27:02.362Z,18.22
2018-03-06T11:28:02.665Z,18.2
2018-03-06T11:29:02.387Z,18.19
2018-03-06T11:30:02.411Z,18.19
2018-03-06T11:31:02.408Z,18.18
2018-03-06T11:32:02.385Z,18.21
2018-03-06T11:33:02.430Z,18.2
2018-03-06T11:34:02.373Z,18.17
2018-03-06T11:35:02.362Z,18.17
2018-03-06T11:36:02.594Z,18.18
2018-03-06T11:37:02.404Z,18.18
2018-03-06T11:38:02.377Z,18.17
2018-03-06T11:39:02.377Z,18.18
2018-03-06T11:40:02.367Z,18.17
2018-03-06T11:41:02.382Z,18.19
2018-03-06T11:42:02.377Z,18.18
2018-03-06T11:43:02.421Z,18.15
2018-03-06T11:44:02.423Z,18.17
2018-03-06T11:45:02.376Z,18.2
2018-03-06T11:46:02.382Z,18.17
2018-03-06T11:47:02.355Z,18.18
2018-03-06T11:48:02.680Z,18.2
2018-03-06T11:49:02.378Z,18.18
2018-03-06T11:50:02.937Z,18.18
2018-03-06T11:51:02.376Z,18.19
2018-03-06T11:52:02.355Z,18.19
2018-03-06T11:53:02.418Z,18.19
2018-03-06T11:54:02.399Z,18.21
2018-03-06T11:55:02.341Z,18.2
2018-03-06T11:56:02.370Z,18.21
2018-03-06T11:57:02.418Z,18.22
2018-03-06T11:58:02.504Z,18.23
2018-03-06T11:59:02.389Z,18.23
2018-03-06T12:00:02.387Z,18.24
2018-03-06T12:01:02.353Z,18.24
2018-03-06T12:02:02.564Z,18.22
2018-03-06T12:03:02.416Z,18.23
2018-03-06T12:04:02.387Z,18.24
2018-03-06T12:05:02.347Z,18.25
2018-03-06T12:06:02.360Z,18.26
2018-03-06T12:07:02.379Z,18.26
2018-03-06T12:08:02.384Z,18.26
2018-03-06T12:09:02.376Z,18.26
2018-03-06T12:10:02.637Z,18.25
2018-03-06T12:11:02.371Z,18.27
2018-03-06T12:12:02.378Z,18.26
2018-03-06T12:13:02.400Z,18.25
2018-03-06T12:14:02.384Z,18.27
2018-03-06T12:15:02.363Z,18.26
2018-03-06T12:16:02.350Z,18.24
2018-03-06T12:17:02.355Z,18.25
2018-03-06T12:18:02.629Z,18.26
2018-03-06T12:19:02.357Z,18.26
2018-03-06T12:20:02.371Z,18.26
2018-03-06T12:21:02.410Z,18.26
2018-03-06T12:22:02.346Z,18.26
2018-03-06T12:23:02.392Z,18.25
2018-03-06T12:24:02.377Z,18.25
2018-03-06T12:25:02.360Z,18.27
2018-03-06T12:26:02.376Z,18.25
2018-03-06T12:27:02.362Z,18.24
2018-03-06T12:28:02.353Z,18.25
2018-03-06T12:29:02.354Z,18.26
2018-03-06T12:30:02.583Z,18.25
2018-03-06T12:31:02.385Z,18.26
2018-03-06T12:32:02.378Z,18.25
2018-03-06T12:33:02.360Z,18.25
2018-03-06T12:34:02.382Z,18.24
2018-03-06T12:35:02.411Z,18.26
2018-03-06T12:36:02.355Z,18.25
2018-03-06T12:37:02.358Z,18.23
2018-03-06T12:38:02.343Z,18.25
2018-03-06T12:39:02.352Z,18.25
2018-03-06T12:40:02.368Z,18.25
2018-03-06T12:41:02.353Z,18.23
2018-03-06T12:42:02.359Z,18.24
2018-03-06T12:43:02.370Z,18.27
2018-03-06T12:44:02.396Z,18.25
2018-03-06T12:45:03.577Z,18.26
2018-03-06T12:46:02.363Z,18.26
2018-03-06T12:47:02.361Z,18.27
2018-03-06T12:48:02.380Z,18.26
2018-03-06T12:49:02.377Z,18.28
2018-03-06T12:50:02.360Z,18.29
2018-03-06T12:51:02.330Z,18.28
2018-03-06T12:52:02.362Z,18.3
2018-03-06T12:53:02.356Z,18.33
2018-03-06T12:54:02.378Z,18.33
2018-03-06T12:55:02.347Z,18.29